Latest Weather Observations for Swanbourne

IDW60901

Issued at 5:51 am WST Tuesday 26 July 2016 (issued every 10 minutes, with the page automatically refreshed every 10 minutes)

About weather observations | Map of Perth area stations | Latest observations for Perth area | Other Formats
Station Details ID: 009215 Name: SWANBOURNE Lat: -31.96 Lon: 115.76 Height: 40.96 m
Data from the previous 72 hours. | See also: Recent months at Swanbourne
Date/Time
WST
Temp
°C
App
Temp
°C
Dew
Point
°C
Rel
Hum
%
Delta-T
°C
Wind Press
QNH
hPa
Press
MSL
hPa
Rain since
9am
mm
Dir  Spd
km/h
Gust
km/h
Spd
kts
Gust
kts
26/05:30am 7.4 4.8 6.2 92 0.5 ENE 9 11 5 6 - - 0.0
26/05:00am 7.2 4.9 5.8 91 0.6 ENE 7 9 4 5 - - 0.0
26/04:30am 7.4 4.7 5.7 89 0.8 ENE 9 13 5 7 - - 0.0
26/04:00am 7.9 5.7 6.0 88 0.9 ENE 7 9 4 5 - - 0.0
26/03:30am 8.2 6.0 6.2 87 0.9 ENE 7 11 4 6 - - 0.0
26/03:00am 8.3 6.3 6.4 88 0.9 NE 6 9 3 5 - - 0.0
26/02:30am 8.2 5.6 6.3 88 0.9 ENE 9 11 5 6 - - 0.0
26/02:00am 8.1 5.5 6.2 88 0.9 ENE 9 13 5 7 - - 0.0
26/01:30am 8.3 5.8 6.4 88 0.9 ENE 9 11 5 6 - - 0.0
26/01:00am 8.5 5.6 6.5 87 0.9 ENE 11 15 6 8 - - 0.0
26/12:30am 8.6 6.1 6.6 87 0.9 ENE 9 13 5 7 - - 0.0
26/12:00am 8.8 6.4 6.8 87 0.9 ENE 9 13 5 7 - - 0.0
 
Date/Time
WST
Temp
°C
App
Temp
°C
Dew
Point
°C
Rel
Hum
%
Delta-T
°C
Wind Press
QNH
hPa
Press
MSL
hPa
Rain since
9am
mm
Dir  Spd
km/h
Gust
km/h
Spd
kts
Gust
kts
25/11:30pm 9.0 6.6 7.0 87 0.9 ENE 9 13 5 7 - - 0.0
25/11:00pm 9.6 7.2 7.2 85 1.1 ENE 9 11 5 6 - - 0.0
25/10:30pm 9.8 7.5 7.4 85 1.1 ENE 9 9 5 5 - - 0.0
25/10:00pm 10.8 9.0 7.9 82 1.4 ESE 7 9 4 5 - - 0.0
25/09:30pm 11.7 10.0 8.4 80 1.6 SE 7 9 4 5 - - 0.0
25/09:00pm 11.8 10.2 7.9 77 1.9 SE 6 7 3 4 - - 0.0
25/08:30pm 11.8 10.1 7.5 75 2.1 SE 6 7 3 4 - - 0.0
25/08:00pm 12.3 10.5 7.0 70 2.5 SSE 6 7 3 4 - - 0.0
25/07:30pm 12.4 10.4 7.1 70 2.6 S 7 7 4 4 - - 0.0
25/07:00pm 12.5 11.1 7.4 71 2.5 SE 4 6 2 3 - - 0.0
25/06:30pm 12.5 10.7 7.8 73 2.3 SSE 7 9 4 5 - - 0.0
25/06:00pm 13.0 11.2 7.9 71 2.5 S 7 11 4 6 - - 0.0
25/05:30pm 13.4 11.2 8.0 70 2.7 S 9 13 5 7 - - 0.0
25/05:00pm 14.2 11.2 7.7 65 3.2 SSW 13 17 7 9 - - 0.0
25/04:30pm 14.9 12.3 7.9 63 3.5 SSW 11 17 6 9 - - 0.0
25/04:00pm 15.4 12.9 8.2 62 3.6 SSW 11 19 6 10 - - 0.0
25/03:30pm 15.6 13.1 6.6 55 4.4 SSE 9 17 5 9 - - 0.0
25/03:00pm 15.7 12.9 7.0 56 4.3 SSE 11 19 6 10 - - 0.0
25/02:30pm 15.2 12.6 6.2 55 4.4 SSE 9 17 5 9 - - 0.0
25/02:00pm 15.9 13.6 7.4 57 4.2 SSE 9 17 5 9 - - 0.0
25/01:30pm 15.8 12.9 6.5 54 4.5 SSE 11 19 6 10 - - 0.0
25/01:00pm 14.9 12.0 6.5 57 4.1 SSE 11 19 6 10 - - 0.0
25/12:30pm 15.1 12.1 5.9 54 4.4 SE 11 20 6 11 - - 0.0
25/12:00pm 15.4 12.2 6.7 56 4.3 SSE 13 20 7 11 - - 0.0
25/11:30am 14.9 11.9 6.2 56 4.2 SE 11 19 6 10 - - 0.0
25/11:00am 14.4 11.5 6.3 58 3.9 SE 11 17 6 9 - - 0.0
25/10:30am 13.9 11.0 6.5 61 3.6 ESE 11 19 6 10 - - 0.0
25/10:00am 13.3 10.8 6.4 63 3.3 ESE 9 15 5 8 - - 0.0
25/09:30am 12.7 9.4 6.3 65 3.0 E 13 19 7 10 - - 0.0
25/09:00am 12.0 10.1 6.7 70 2.5 ENE 6 9 3 5 - - 0.0
25/08:30am 11.2 9.4 7.3 77 1.9 E 6 7 3 4 - - 0.0
25/08:00am 9.3 6.8 6.7 84 1.2 E 9 15 5 8 - - 0.0
25/07:30am 8.8 5.5 6.4 85 1.1 E 13 17 7 9 - - 0.0
25/07:00am 9.1 5.8 6.4 83 1.3 E 13 17 7 9 - - 0.0
25/06:30am 9.5 7.0 6.6 82 1.4 E 9 13 5 7 - - 0.0
25/06:00am 9.8 7.9 6.9 82 1.4 E 6 7 3 4 - - 0.0
25/05:30am 9.7 7.8 6.8 82 1.4 ESE 6 7 3 4 - - 0.0
25/05:00am 9.8 7.8 6.9 82 1.4 E 7 11 4 6 - - 0.0
25/04:30am 9.8 8.2 6.5 80 1.5 ESE 4 7 2 4 - - 0.0
25/04:00am 9.8 7.8 6.2 78 1.7 ESE 6 7 3 4 - - 0.0
25/03:30am 9.7 8.1 6.2 79 1.6 ESE 4 7 2 4 - - 0.0
25/03:00am 9.8 7.6 6.2 78 1.7 E 7 9 4 5 - - 0.0
25/02:30am 9.9 7.6 5.9 76 1.8 ENE 7 7 4 4 - - 0.0
25/02:00am 9.7 7.6 5.9 77 1.7 ENE 6 7 3 4 - - 0.0
25/01:30am 9.8 7.7 5.6 75 1.9 ENE 6 9 3 5 - - 0.0
25/01:00am 10.0 7.7 5.8 75 1.9 NE 7 9 4 5 - - 0.0
25/12:30am 9.9 7.6 5.7 75 1.9 ENE 7 11 4 6 - - 0.0
25/12:00am 9.9 7.3 5.9 76 1.8 ENE 9 11 5 6 - - 0.0
 
Date/Time
WST
Temp
°C
App
Temp
°C
Dew
Point
°C
Rel
Hum
%
Delta-T
°C
Wind Press
QNH
hPa
Press
MSL
hPa
Rain since
9am
mm
Dir  Spd
km/h
Gust
km/h
Spd
kts
Gust
kts
24/11:30pm 10.0 7.0 6.0 76 1.8 ENE 11 17 6 9 - - 0.0
24/11:00pm 10.4 8.1 5.8 73 2.1 ENE 7 11 4 6 - - 0.0
24/10:30pm 10.1 8.0 5.7 74 2.0 E 6 7 3 4 - - 0.0
24/10:00pm 9.7 7.3 5.3 74 2.0 ENE 7 7 4 4 - - 0.0
24/09:30pm 10.1 7.9 5.3 72 2.2 ENE 6 7 3 4 - - 0.0
24/09:00pm 10.7 8.5 5.3 69 2.5 ESE 6 7 3 4 - - 0.0
24/08:30pm 11.4 9.2 5.5 67 2.7 SE 6 7 3 4 - - 0.0
24/08:00pm 11.8 9.7 5.7 66 2.8 ESE 6 9 3 5 - - 0.0
24/07:30pm 12.0 9.9 5.6 65 3.0 SE 6 7 3 4 - - 0.0
24/07:00pm 12.0 9.8 5.4 64 3.1 SE 6 6 3 3 - - 0.0
24/06:30pm 12.0 9.8 5.2 63 3.1 SE 6 9 3 5 - - 0.0
24/06:00pm 12.1 9.7 5.3 63 3.1 SE 7 11 4 6 - - 0.0
24/05:30pm 12.0 8.4 5.0 62 3.2 SSE 13 17 7 9 - - 0.0
24/05:00pm 12.4 9.6 5.1 61 3.4 SSE 9 15 5 8 - - 0.0
24/04:30pm 12.8 8.8 4.8 58 3.7 SE 15 22 8 12 - - 0.0
24/04:00pm 13.5 10.3 4.9 56 4.0 SSE 11 20 6 11 - - 0.0
24/03:30pm 14.2 11.8 5.3 55 4.2 SE 7 17 4 9 - - 0.0
24/03:00pm 13.7 10.4 4.3 53 4.3 SSE 11 19 6 10 - - 0.0
24/02:30pm 13.9 10.6 4.5 53 4.3 SSE 11 17 6 9 - - 0.0
24/02:00pm 13.9 11.0 4.5 53 4.3 SSE 9 17 5 9 - - 0.0
24/01:30pm 13.7 10.7 4.3 53 4.3 SSE 9 15 5 8 - - 0.0
24/01:00pm 14.0 11.5 4.6 53 4.4 SE 7 11 4 6 - - 0.0
24/12:30pm 13.6 11.1 4.7 55 4.1 ESE 7 13 4 7 - - 0.0
24/12:00pm 13.1 10.5 4.3 55 4.0 ESE 7 13 4 7 - - 0.0
24/11:30am 13.0 10.4 4.4 56 3.9 ESE 7 15 4 8 - - 0.0
24/11:00am 12.8 10.2 4.3 56 3.9 E 7 15 4 8 - - 0.0
24/10:30am 11.5 8.8 3.8 59 3.4 E 7 15 4 8 - - 0.0
24/10:00am 10.8 7.8 4.0 63 3.0 E 9 13 5 7 - - 0.0
24/09:30am 10.1 7.6 4.5 68 2.5 E 7 11 4 6 - - 0.0
24/09:00am 8.3 5.7 4.3 76 1.8 ENE 7 11 4 6 - - 3.8
24/08:30am 6.7 3.3 4.2 84 1.1 ENE 11 15 6 8 - - 3.8
24/08:00am 5.1 1.6 3.4 89 0.7 ENE 11 15 6 8 - - 3.8
24/07:30am 4.6 1.0 2.9 89 0.7 ENE 11 13 6 7 - - 3.8
24/07:00am 4.5 1.2 2.7 88 0.7 E 9 11 5 6 - - 3.8
24/06:30am 4.6 1.0 2.9 89 0.7 E 11 13 6 7 - - 3.8
24/06:00am 5.2 1.3 3.5 89 0.7 E 13 15 7 8 - - 3.8
24/05:30am 5.4 1.9 3.6 88 0.8 E 11 13 6 7 - - 3.8
24/05:00am 5.4 2.2 3.3 86 0.9 E 9 11 5 6 - - 3.8
24/04:30am 5.6 2.5 3.4 86 0.9 ESE 9 13 5 7 - - 3.8
24/04:00am 5.7 2.6 3.5 86 0.9 ESE 9 11 5 6 - - 3.8
24/03:30am 6.1 3.0 3.6 84 1.1 E 9 9 5 5 - - 3.8
24/03:00am 6.0 2.8 3.3 83 1.1 ESE 9 9 5 5 - - 3.8
24/02:30am 6.2 3.2 3.9 85 1.0 ESE 9 11 5 6 - - 3.8
24/02:00am 6.5 3.8 3.7 82 1.2 ESE 7 9 4 5 - - 3.8
24/01:30am 6.8 3.7 3.6 80 1.4 ESE 9 11 5 6 - - 3.8
24/01:00am 7.2 4.1 3.6 78 1.5 ESE 9 13 5 7 - - 3.8
24/12:30am 7.6 4.2 3.8 77 1.6 SE 11 15 6 8 - - 3.8
24/12:00am 7.5 4.4 3.6 76 1.7 SE 9 13 5 7 - - 3.8
 
Date/Time
WST
Temp
°C
App
Temp
°C
Dew
Point
°C
Rel
Hum
%
Delta-T
°C
Wind Press
QNH
hPa
Press
MSL
hPa
Rain since
9am
mm
Dir  Spd
km/h
Gust
km/h
Spd
kts
Gust
kts
23/11:30pm 8.2 4.8 3.9 74 1.9 SE 11 15 6 8 - - 3.8
23/11:00pm 8.6 5.2 3.8 72 2.1 SE 11 17 6 9 - - 3.8
23/10:30pm 9.4 6.0 4.0 69 2.4 SE 11 19 6 10 - - 3.8
23/10:00pm 10.0 5.9 4.2 67 2.6 SSE 15 20 8 11 - - 3.8
23/09:30pm 10.2 6.9 4.6 68 2.5 SE 11 19 6 10 - - 3.8
23/09:00pm 10.8 6.7 4.3 64 2.9 SSE 15 22 8 12 - - 3.8
23/08:30pm 11.0 6.9 4.2 63 3.0 SSE 15 20 8 11 - - 3.8
23/08:00pm 11.4 7.3 4.4 62 3.2 SSE 15 24 8 13 - - 3.8
23/07:30pm 11.6 8.3 4.8 63 3.1 SSE 11 17 6 9 - - 3.8
23/07:00pm 11.9 7.8 4.4 60 3.4 SSE 15 22 8 12 - - 3.8
23/06:30pm 12.6 9.0 5.1 60 3.5 SSE 13 26 7 14 - - 3.8
23/06:00pm 12.9 9.5 5.8 62 3.3 S 13 22 7 12 - - 3.8
23/05:30pm 12.9 9.2 6.3 64 3.1 SSE 15 26 8 14 - - 3.8
23/05:00pm 12.7 9.2 7.2 69 2.7 S 15 24 8 13 - - 3.8
23/04:30pm 13.1 8.7 7.3 68 2.8 S 20 35 11 19 - - 3.8
23/04:00pm 13.4 9.3 8.5 72 2.5 S 20 33 11 18 - - 3.8
23/03:30pm 13.2 9.5 10.0 81 1.7 S 20 32 11 17 - - 3.8
23/03:00pm 12.7 11.4 12.4 98 0.2 SSE 11 22 6 12 - - 3.8
23/02:30pm 12.6 9.1 12.3 98 0.2 S 22 33 12 18 - - 3.6
23/02:00pm 15.2 10.2 9.6 69 2.9 SW 26 35 14 19 - - 0.0
23/01:30pm 16.3 11.5 8.8 61 3.9 WSW 24 32 13 17 - - 0.0
23/01:00pm 17.1 12.4 7.7 54 4.7 WSW 22 30 12 16 - - 0.0
23/12:30pm 16.6 13.0 8.3 58 4.2 WSW 17 26 9 14 - - 0.0
23/12:00pm 16.1 14.1 10.0 67 3.2 SW 11 20 6 11 - - 0.0
23/11:30am 15.9 13.0 9.6 66 3.3 SW 15 22 8 12 - - 0.0
23/11:00am 15.4 11.0 7.4 59 4.0 WSW 20 28 11 15 - - 0.0
23/10:30am 15.7 12.1 8.2 61 3.8 SW 17 24 9 13 - - 0.0
23/10:00am 14.2 10.9 8.2 67 3.0 WSW 15 22 8 12 - - 0.0
23/09:30am 13.1 12.3 9.5 79 1.8 SSE 4 6 2 3 - - 0.0
23/09:00am 11.1 9.7 8.7 85 1.2 NE 6 7 3 4 - - 0.2
23/08:30am 9.9 8.0 7.7 86 1.1 ENE 7 9 4 5 - - 0.2
23/08:00am 9.4 7.3 6.7 83 1.3 NE 7 9 4 5 - - 0.2
23/07:30am 9.8 7.6 5.4 74 2.0 ENE 6 7 3 4 - - 0.0
23/07:00am 10.9 8.3 5.9 71 2.3 N 9 13 5 7 - - 0.0
23/06:30am 10.6 8.0 6.0 73 2.1 N 9 13 5 7 - - 0.0
23/06:00am 10.4 7.7 5.6 72 2.2 N 9 15 5 8 - - 0.0

Latest Capital City Observations: Canberra | Sydney | Melbourne | Brisbane | Adelaide | Perth | Hobart | Darwin

Other Formats:

Comma delimited format used in spreadsheet applications
http://www.bom.gov.au/fwo/IDW60901/IDW60901.94614.axf

JavaScript Object Notation format (JSON) in row-major order
http://www.bom.gov.au/fwo/IDW60901/IDW60901.94614.json